EW5385 Brisbane AU current weather conditions

sailwx.info

Wind from 003 at 6 knots gusting 13

Air temperature 26.1° C
Dewpoint 24.0° C

Last reported at 2020-Jan-22 15:00 UTC.
Time now 2020-Jan-22 15:33 UTC

Location: S 27°36' E 153°04'.
View on Google Maps.

See reports from other nearby stations

  
Tides and Currents Weather Stations Pressure Air Temp Water Temp Dewpoint Dewpoint Depression Visibility Wind Speed Wind Dir Waves Ship Positions
date/time (UTC)wind fromknots sea level pressurealtimeterstation pressurevisibilityair tempwater tempwave heightnotes
2020-Jan-22 15:00 003 6 gusting 13 26.1
2020-Jan-22 14:17 343 3 gusting 7 26.1
2020-Jan-22 14:00 333 4 gusting 11 26.1
2020-Jan-22 13:32 041 6 gusting 12 26.1
2020-Jan-22 13:16 085 5 gusting 12 26.1
2020-Jan-22 12:47 079 3 gusting 7 26.1
2020-Jan-22 12:30 010 3 gusting 8 26.1
2020-Jan-22 12:05 311 4 gusting 13 26.1
2020-Jan-22 11:45 349 6 gusting 12 26.1
2020-Jan-22 11:02 016 3 gusting 10 27.2
2020-Jan-22 10:46 022 4 gusting 9 27.2
2020-Jan-22 10:30 032 5 gusting 17 27.2
2020-Jan-22 10:01 003 6 gusting 17 27.2
2020-Jan-22 09:46 045 6 gusting 16 27.2
2020-Jan-22 09:17 043 9 gusting 16 27.2
2020-Jan-22 09:00 051 8 gusting 14 27.2
2020-Jan-22 08:32 027 8 gusting 19 27.2
2020-Jan-22 08:16 048 6 gusting 18 27.2
2020-Jan-22 07:46 039 6 gusting 14 27.8
2020-Jan-22 07:30 340 8 gusting 14 27.8
2020-Jan-22 07:01 025 6 gusting 13 28.9
2020-Jan-22 06:33 010 6 gusting 13 29.4
2020-Jan-22 06:18 041 6 gusting 11 30.0
2020-Jan-22 06:00 017 6 gusting 13 30.6
2020-Jan-22 05:47 027 8 gusting 15 30.6
2020-Jan-22 05:30 029 8 gusting 19 31.7
2020-Jan-22 05:03 025 7 gusting 16 31.7
2020-Jan-22 04:30 062 9 gusting 16 32.2
2020-Jan-22 04:01 052 6 gusting 12 32.8
2020-Jan-22 03:46 047 4 gusting 12 32.8
2020-Jan-22 03:02 026 6 gusting 13 33.3
2020-Jan-22 02:46 022 5 gusting 9 33.3
2020-Jan-22 02:15 045 6 gusting 11 33.3
2020-Jan-22 02:03 031 3 gusting 9 33.3
2020-Jan-22 01:30 132 32.8
2020-Jan-22 01:02 267 1 gusting 6 32.8
2020-Jan-22 00:48 306 0 gusting 6 32.2
2020-Jan-22 00:30 318 31.7
2020-Jan-22 00:17 081 0 gusting 3 31.7
2020-Jan-22 00:00 323 2 gusting 4 31.1
2020-Jan-21 23:45 029 0 gusting 4 30.6
2020-Jan-21 23:32 264 30.6
2020-Jan-21 23:01 084 1 gusting 5 28.9
2020-Jan-21 22:46 353 0 gusting 5 28.9
2020-Jan-21 22:17 314 1 gusting 6 27.8
2020-Jan-21 22:00 331 4 gusting 7 27.8
2020-Jan-21 21:31 328 3 gusting 6 27.2
2020-Jan-21 21:01 352 2 gusting 6 26.1
2020-Jan-21 20:46 318 0 gusting 6 25.6
2020-Jan-21 20:15 312 1 gusting 3 24.4
2020-Jan-21 20:03 320 1 gusting 4 24.4
2020-Jan-21 19:45 347 23.3
2020-Jan-21 19:32 341 22.8
2020-Jan-21 18:46 353 23.3
2020-Jan-21 18:30 343 23.3
2020-Jan-21 18:17 343 23.3
2020-Jan-21 18:01 342 23.3
2020-Jan-21 17:31 222 23.3
2020-Jan-21 17:01 222 23.9
2020-Jan-21 16:30 215 24.4
2020-Jan-21 16:01 229 1 gusting 5 25.0
2020-Jan-21 15:45 226 2 gusting 6 25.0
2020-Jan-21 15:17 219 2 gusting 5 25.0
2020-Jan-21 15:00 210 2 gusting 5 25.0
2020-Jan-21 14:48 243 25.0
2020-Jan-21 14:18 252 25.6
2020-Jan-21 14:00 295 0 gusting 3 25.6
2020-Jan-21 13:32 308 25.6
2020-Jan-21 13:01 320 1 gusting 3 26.1
2020-Jan-21 12:45 343 1 gusting 3 26.1
2020-Jan-21 12:16 025 26.1
2020-Jan-21 11:45 014 0 gusting 3 26.1
2020-Jan-21 11:17 331 26.1
2020-Jan-21 11:01 062 0 gusting 2 26.7
2020-Jan-21 10:46 059 3 gusting 6 26.7
2020-Jan-21 10:16 038 5 gusting 8 26.7
2020-Jan-21 10:00 050 3 gusting 6 26.7
2020-Jan-21 09:31 096 2 gusting 4 26.7
2020-Jan-21 09:15 060 1 gusting 5 27.2
2020-Jan-21 09:00 126 1 gusting 7 27.2
2020-Jan-21 08:31 078 3 gusting 9 27.8
2020-Jan-21 08:01 060 4 gusting 12 28.9
2020-Jan-21 07:31 096 4 gusting 8 28.9
2020-Jan-21 07:01 332 4 gusting 11 27.2
2020-Jan-21 06:31 354 7 gusting 15 27.8
2020-Jan-21 06:15 350 8 gusting 17 28.9
2020-Jan-21 05:47 058 10 gusting 17 31.1
2020-Jan-21 05:30 022 11 gusting 18 31.7
2020-Jan-21 05:17 354 9 gusting 16 31.7
2020-Jan-21 04:31 057 6 gusting 14 32.2
2020-Jan-21 04:02 066 5 gusting 11 32.2
2020-Jan-21 03:31 024 3 gusting 12 32.2
2020-Jan-21 03:01 001 5 gusting 11 32.2
2020-Jan-21 02:30 314 2 gusting 9 32.2
2020-Jan-21 02:01 054 6 gusting 9 32.8
2020-Jan-21 01:48 053 4 gusting 9 32.2
2020-Jan-21 01:31 041 5 gusting 9 32.8
2020-Jan-21 00:46 014 3 gusting 8 31.7
2020-Jan-21 00:16 311 31.1
2020-Jan-21 00:01 122 31.1
2020-Jan-20 23:47 275 1 gusting 4 30.0
2020-Jan-20 23:31 057 3 gusting 6 29.4
2020-Jan-20 23:16 003 0 gusting 5 29.4
2020-Jan-20 23:00 056 2 gusting 4 28.9
2020-Jan-20 22:46 108 28.3
2020-Jan-20 22:31 109 27.2
2020-Jan-20 22:15 109 27.2
2020-Jan-20 22:01 109 26.1
2020-Jan-20 21:46 153 0 gusting 2 25.0
2020-Jan-20 21:30 214 2 gusting 10 24.4
2020-Jan-20 21:15 181 2 gusting 7 24.4
2020-Jan-20 21:00 221 3 gusting 7 23.9
2020-Jan-20 20:45 231 5 gusting 11 23.9
2020-Jan-20 20:30 320 3 gusting 8 24.4
2020-Jan-20 20:15 342 4 gusting 6 23.9
2020-Jan-20 20:00 348 2 gusting 8 23.9
2020-Jan-20 19:48 330 3 gusting 7 23.9
2020-Jan-20 19:33 311 2 gusting 6 23.9
2020-Jan-20 19:16 320 24.4
2020-Jan-20 19:02 323 1 gusting 4 24.4
2020-Jan-20 18:46 305 1 gusting 6 24.4
2020-Jan-20 18:32 304 0 gusting 5 24.4
2020-Jan-20 18:17 312 2 gusting 6 25.0
2020-Jan-20 18:01 334 2 gusting 5 25.0
2020-Jan-20 17:46 318 2 gusting 4 25.0
2020-Jan-20 17:32 017 2 gusting 6 25.0
2020-Jan-20 17:16 325 1 gusting 6 25.0
2020-Jan-20 17:01 349 2 gusting 6 25.0
2020-Jan-20 16:47 008 3 gusting 8 25.6
2020-Jan-20 16:32 024 2 gusting 8 25.6
2020-Jan-20 16:16 335 4 gusting 10 25.6
2020-Jan-20 16:01 342 5 gusting 13 25.6
2020-Jan-20 15:46 344 5 gusting 12 25.6
2020-Jan-20 15:31 333 3 gusting 10 25.6
2020-Jan-20 15:16 303 4 gusting 11 25.6
2020-Jan-20 15:00 353 5 gusting 11 25.6